Norway House, Canada
Current Conditions -  °F | °C
As of 10:29 AM on Tuesday 27 Jan 2015 (Local Time) from CYNE Reporting Station
Haze Haze  
Wind Chill: 18°   Ceiling: 300
Heat Index: 18°   Visibility: 6mi
Dew Point: 18°   Wind: 2mph
Humidity: 100%   Direction: NA
Pressure: 29.88"   Gusts: NA
Location:  54°N, 97.77°W
Report Text: CYNE 271629Z AUTO VRB02KT 6SM BR OVC003 M08/M08 A2988 RMK SLP137
Loading
Personal Weather Stations






























Interactive Weather Map New forecast layout! Learn more

10-Day Weather Forecast

Advertisements
Track Severe Weather on mobile